createdAt,value
2017-08-21T03:30:20.628Z,15.40
2017-08-21T03:32:48.299Z,15.30
2017-08-21T03:35:15.968Z,15.40
2017-08-21T03:37:43.703Z,15.40
2017-08-21T03:40:11.662Z,15.50
2017-08-21T03:42:39.314Z,15.50
2017-08-21T03:45:06.977Z,15.50
2017-08-21T03:47:34.607Z,15.50
2017-08-21T03:50:02.248Z,15.40
2017-08-21T03:52:29.916Z,15.40
2017-08-21T03:54:57.556Z,15.40
2017-08-21T03:57:25.267Z,15.40
2017-08-21T03:59:53.744Z,15.40
2017-08-21T04:02:21.399Z,15.40
2017-08-21T04:04:49.053Z,15.40
2017-08-21T04:07:17.301Z,15.40
2017-08-21T04:09:44.943Z,15.30
2017-08-21T04:12:12.583Z,15.30
2017-08-21T04:14:40.236Z,15.40
2017-08-21T04:17:08.639Z,15.30
2017-08-21T04:19:36.313Z,15.30
2017-08-21T04:22:03.959Z,15.30
2017-08-21T04:24:32.334Z,15.30
2017-08-21T04:26:59.977Z,15.30
2017-08-21T04:29:28.402Z,15.30
2017-08-21T04:31:56.878Z,15.30
2017-08-21T04:34:24.910Z,15.30
2017-08-21T04:36:53.355Z,15.20
2017-08-21T04:39:20.988Z,15.20
2017-08-21T04:41:48.670Z,15.10
2017-08-21T04:44:16.321Z,15.00
2017-08-21T04:46:43.989Z,15.10
2017-08-21T04:49:11.636Z,15.10
2017-08-21T04:51:39.325Z,15.10
2017-08-21T04:54:06.989Z,15.20
2017-08-21T04:56:34.661Z,15.30
2017-08-21T04:59:02.309Z,15.30
2017-08-21T05:01:29.949Z,15.30
2017-08-21T05:03:57.636Z,15.40
2017-08-21T05:06:25.273Z,15.40
2017-08-21T05:08:53.065Z,15.50
2017-08-21T05:11:20.713Z,15.40
2017-08-21T05:13:48.377Z,15.30
2017-08-21T05:16:16.021Z,15.20
2017-08-21T05:18:44.073Z,15.30
2017-08-21T05:21:12.529Z,15.30
2017-08-21T05:23:40.173Z,15.20
2017-08-21T05:26:07.844Z,15.20
2017-08-21T05:28:36.228Z,15.30
2017-08-21T05:31:04.679Z,15.40
2017-08-21T05:33:32.344Z,15.40
2017-08-21T05:36:00.061Z,15.50
2017-08-21T05:38:27.748Z,15.60
2017-08-21T05:40:55.400Z,15.70
2017-08-21T05:43:23.028Z,15.80
2017-08-21T05:45:51.828Z,15.80
2017-08-21T05:48:19.472Z,15.80
2017-08-21T05:50:47.883Z,15.90
2017-08-21T05:53:15.554Z,15.90
2017-08-21T05:55:43.209Z,16.10
2017-08-21T05:58:10.941Z,16.10
2017-08-21T06:00:39.364Z,16.40
2017-08-21T06:03:07.258Z,16.40
2017-08-21T06:05:35.282Z,16.50
2017-08-21T06:08:02.924Z,16.50
2017-08-21T06:10:30.606Z,16.60
2017-08-21T06:12:58.249Z,16.60
2017-08-21T06:15:26.667Z,17.00
2017-08-21T06:17:54.329Z,17.00
2017-08-21T06:20:21.992Z,17.20
2017-08-21T06:22:49.629Z,17.30
2017-08-21T06:25:17.598Z,17.50
2017-08-21T06:27:45.273Z,17.70
2017-08-21T06:30:12.969Z,17.90
2017-08-21T06:32:40.700Z,17.90
2017-08-21T06:35:08.351Z,17.90
2017-08-21T06:37:35.998Z,18.10
2017-08-21T06:40:04.059Z,18.20
2017-08-21T06:42:32.520Z,18.40
2017-08-21T06:45:00.254Z,18.40
2017-08-21T06:47:28.100Z,18.50
2017-08-21T06:49:55.774Z,18.70
2017-08-21T06:52:23.426Z,18.80
2017-08-21T06:54:51.119Z,18.80
2017-08-21T06:57:18.760Z,19.10
2017-08-21T06:59:46.450Z,19.40
2017-08-21T07:02:14.254Z,19.70
2017-08-21T07:04:42.322Z,19.90
2017-08-21T07:07:10.014Z,20.00
2017-08-21T07:09:37.657Z,19.90
2017-08-21T07:12:05.450Z,19.80
2017-08-21T07:14:33.588Z,19.90
2017-08-21T07:17:01.288Z,20.00
2017-08-21T07:19:29.442Z,19.90
2017-08-21T07:21:57.111Z,19.60
2017-08-21T07:24:24.762Z,19.50
2017-08-21T07:26:52.809Z,19.50
2017-08-21T07:29:20.473Z,20.00
2017-08-21T07:31:48.889Z,19.90
2017-08-21T07:34:16.570Z,19.90
2017-08-21T07:36:44.204Z,19.90
2017-08-21T07:39:11.883Z,20.00
2017-08-21T07:41:39.561Z,20.30
2017-08-21T07:44:07.578Z,20.40
2017-08-21T07:46:35.236Z,20.70
2017-08-21T07:49:02.901Z,20.70
2017-08-21T07:51:30.560Z,20.80
2017-08-21T07:53:58.981Z,21.30
2017-08-21T07:56:26.646Z,21.30
2017-08-21T07:58:54.300Z,21.50
2017-08-21T08:01:21.979Z,21.70
2017-08-21T08:03:49.701Z,21.80
2017-08-21T08:06:17.747Z,21.90
2017-08-21T08:08:46.186Z,22.30
2017-08-21T08:11:13.825Z,22.30
2017-08-21T08:13:41.495Z,22.50
2017-08-21T08:16:09.161Z,22.50
2017-08-21T08:18:37.116Z,22.80
2017-08-21T08:21:04.783Z,23.00
2017-08-21T08:23:32.443Z,23.20
2017-08-21T08:26:00.105Z,23.50
2017-08-21T08:28:27.775Z,23.70
2017-08-21T08:30:55.441Z,23.90
2017-08-21T08:33:23.479Z,23.80
2017-08-21T08:35:51.175Z,23.90
2017-08-21T08:38:18.828Z,24.20
2017-08-21T08:40:46.490Z,24.00
2017-08-21T08:43:14.144Z,24.00
2017-08-21T08:45:41.888Z,24.30
2017-08-21T08:48:09.550Z,24.00
2017-08-21T08:50:37.645Z,24.50
2017-08-21T08:53:05.305Z,25.20
2017-08-21T08:55:32.995Z,25.80
2017-08-21T08:58:00.679Z,26.10
2017-08-21T09:00:28.345Z,26.50
2017-08-21T09:02:56.027Z,26.30
2017-08-21T09:05:23.667Z,26.60
2017-08-21T09:07:51.350Z,27.40
2017-08-21T09:10:19.024Z,28.00
2017-08-21T09:12:47.104Z,28.50
2017-08-21T09:15:14.763Z,27.60
2017-08-21T09:17:42.413Z,26.50
2017-08-21T09:20:10.069Z,26.20
2017-08-21T09:22:37.705Z,25.40
2017-08-21T09:25:05.377Z,25.10
2017-08-21T09:27:33.809Z,26.50
2017-08-21T09:30:03.021Z,26.40
2017-08-21T09:32:30.684Z,25.60
2017-08-21T09:34:58.356Z,25.00
2017-08-21T09:37:26.041Z,24.60
2017-08-21T09:39:54.453Z,27.50
2017-08-21T09:42:22.121Z,27.50
2017-08-21T09:44:49.841Z,30.30
2017-08-21T09:47:17.736Z,32.00
2017-08-21T09:49:45.383Z,33.80
2017-08-21T09:52:14.189Z,34.80
2017-08-21T09:54:41.843Z,34.70
2017-08-21T09:57:09.518Z,32.00
2017-08-21T09:59:37.169Z,29.30
2017-08-21T10:02:04.822Z,27.30
2017-08-21T10:04:33.229Z,25.30
2017-08-21T10:07:00.872Z,25.20
2017-08-21T10:09:28.565Z,24.60
2017-08-21T10:11:56.204Z,24.30
2017-08-21T10:14:23.857Z,24.20
2017-08-21T10:16:51.544Z,27.00
2017-08-21T10:19:19.191Z,30.70
2017-08-21T10:21:46.876Z,33.60
2017-08-21T10:24:14.567Z,34.90
2017-08-21T10:26:42.234Z,35.80
2017-08-21T10:29:09.884Z,33.40
2017-08-21T10:31:37.930Z,31.60
2017-08-21T10:34:05.570Z,32.00
2017-08-21T10:36:33.215Z,34.10
2017-08-21T10:39:01.652Z,34.20
2017-08-21T10:41:29.322Z,34.10
2017-08-21T10:43:57.042Z,31.90
2017-08-21T10:46:24.679Z,29.80
2017-08-21T10:48:52.342Z,28.40
2017-08-21T10:51:20.767Z,27.80
2017-08-21T10:53:48.581Z,27.80
2017-08-21T10:56:17.047Z,32.00
2017-08-21T10:58:44.895Z,31.90
2017-08-21T11:01:12.923Z,33.10
2017-08-21T11:03:40.640Z,33.20
2017-08-21T11:06:08.284Z,35.30
2017-08-21T11:08:36.266Z,37.20
2017-08-21T11:11:03.930Z,38.40
2017-08-21T11:13:31.595Z,38.80
2017-08-21T11:15:59.606Z,39.60
2017-08-21T11:18:27.360Z,40.40
2017-08-21T11:20:55.041Z,40.50
2017-08-21T11:23:23.125Z,39.60
2017-08-21T11:25:50.848Z,36.30
2017-08-21T11:28:18.558Z,36.30
2017-08-21T11:30:46.593Z,35.80
2017-08-21T11:33:14.256Z,34.70
2017-08-21T11:35:41.904Z,34.20
2017-08-21T11:38:10.719Z,37.50
2017-08-21T11:40:38.382Z,37.50
2017-08-21T11:43:06.055Z,38.00
2017-08-21T11:45:34.099Z,38.70
2017-08-21T11:48:01.763Z,38.20
2017-08-21T11:50:29.452Z,37.00
2017-08-21T11:52:57.437Z,32.90
2017-08-21T11:55:25.114Z,31.00
2017-08-21T11:57:52.787Z,29.70
2017-08-21T12:00:20.776Z,28.70
2017-08-21T12:02:49.183Z,27.60
2017-08-21T12:05:16.860Z,27.50
2017-08-21T12:07:44.893Z,27.40
2017-08-21T12:10:12.570Z,27.30
2017-08-21T12:12:40.220Z,27.00
2017-08-21T12:15:08.582Z,26.80
2017-08-21T12:17:37.177Z,26.10
2017-08-21T12:20:05.602Z,25.40
2017-08-21T12:22:33.748Z,25.30
2017-08-21T12:25:01.404Z,25.10
2017-08-21T12:27:29.089Z,25.30
2017-08-21T12:29:57.082Z,24.90
2017-08-21T12:32:24.764Z,24.70
2017-08-21T12:34:52.420Z,24.70
2017-08-21T12:37:20.432Z,25.20
2017-08-21T12:39:48.186Z,26.10
2017-08-21T12:42:15.859Z,26.80
2017-08-21T12:44:43.913Z,26.90
2017-08-21T12:47:12.367Z,27.10
2017-08-21T12:49:40.014Z,27.10
2017-08-21T12:52:08.022Z,27.50
2017-08-21T12:54:36.470Z,27.10
2017-08-21T12:57:04.142Z,27.10
2017-08-21T12:59:32.146Z,26.90
2017-08-21T13:01:59.826Z,26.80
2017-08-21T13:04:27.491Z,26.50
2017-08-21T13:06:55.629Z,26.20
2017-08-21T13:09:24.053Z,26.70
2017-08-21T13:11:51.713Z,26.70
2017-08-21T13:14:20.565Z,26.80
2017-08-21T13:16:48.989Z,27.40
2017-08-21T13:19:16.648Z,27.40
2017-08-21T13:21:44.675Z,27.50
2017-08-21T13:24:51.297Z,27.60
2017-08-21T13:27:19.298Z,27.30
2017-08-21T13:29:46.964Z,27.10
2017-08-21T13:34:56.527Z,26.80
2017-08-21T13:37:24.204Z,26.80
2017-08-21T13:39:51.873Z,26.50
2017-08-21T13:42:19.966Z,26.30
2017-08-21T13:44:47.678Z,26.30
2017-08-21T13:47:15.349Z,26.40
2017-08-21T13:49:43.438Z,26.50
2017-08-21T13:52:11.107Z,26.40
2017-08-21T13:54:38.786Z,26.10
2017-08-21T13:57:06.784Z,25.90
2017-08-21T13:59:34.446Z,25.90
2017-08-21T14:02:02.084Z,26.10
2017-08-21T14:04:30.075Z,26.00
2017-08-21T14:06:57.721Z,25.80
2017-08-21T14:09:25.361Z,25.70
2017-08-21T14:11:53.449Z,25.50
2017-08-21T14:14:21.113Z,25.30
2017-08-21T14:16:48.778Z,25.00
2017-08-21T14:19:16.793Z,25.00
2017-08-21T14:21:44.454Z,24.90
2017-08-21T14:24:12.106Z,25.10
2017-08-21T14:26:40.111Z,25.20
2017-08-21T14:29:07.816Z,25.20
2017-08-21T14:31:35.498Z,25.20
2017-08-21T14:34:05.019Z,25.00
2017-08-21T14:36:32.675Z,24.80
2017-08-21T14:39:00.341Z,24.60
2017-08-21T14:41:28.347Z,24.30
2017-08-21T14:43:55.982Z,23.90
2017-08-21T14:46:23.653Z,24.00
2017-08-21T14:48:51.717Z,24.00
2017-08-21T14:51:19.471Z,24.30
2017-08-21T14:53:47.128Z,24.30
2017-08-21T14:56:15.187Z,24.60
2017-08-21T14:58:42.857Z,24.70
2017-08-21T15:01:10.505Z,24.70
2017-08-21T15:03:38.496Z,24.20
2017-08-21T15:06:06.166Z,24.10
2017-08-21T15:08:33.830Z,24.30
2017-08-21T15:11:01.933Z,24.50
2017-08-21T15:13:29.589Z,24.60
2017-08-21T15:15:57.279Z,24.50
2017-08-21T15:18:25.333Z,24.60
2017-08-21T15:20:53.006Z,24.10
2017-08-21T15:23:20.666Z,23.90
2017-08-21T15:25:48.719Z,24.10
2017-08-21T15:28:16.400Z,24.00
2017-08-21T15:30:44.054Z,23.60
2017-08-21T15:33:12.526Z,23.40
2017-08-21T15:35:40.689Z,23.30
2017-08-21T15:38:08.769Z,23.20
2017-08-21T15:40:37.066Z,23.20
2017-08-21T15:43:05.171Z,23.40
2017-08-21T15:45:33.108Z,23.60
2017-08-21T15:48:01.093Z,23.50
2017-08-21T15:50:28.744Z,23.20
2017-08-21T15:52:56.375Z,23.30
2017-08-21T15:55:24.429Z,23.50
2017-08-21T15:57:54.674Z,23.70
2017-08-21T16:00:22.796Z,23.40
2017-08-21T16:02:50.861Z,23.50
2017-08-21T16:05:18.544Z,23.20
2017-08-21T16:07:46.789Z,23.00
2017-08-21T16:10:14.921Z,22.80
2017-08-21T16:12:43.015Z,23.00
2017-08-21T16:15:10.661Z,23.40
2017-08-21T16:17:38.703Z,23.60
2017-08-21T16:20:06.615Z,23.70
2017-08-21T16:22:34.283Z,23.70
2017-08-21T16:25:02.275Z,23.60
2017-08-21T16:27:30.827Z,23.60
2017-08-21T16:29:58.523Z,23.10
2017-08-21T16:32:26.578Z,22.90
2017-08-21T16:34:54.253Z,22.80
2017-08-21T16:37:21.911Z,22.90
2017-08-21T16:39:49.941Z,22.80
2017-08-21T16:42:17.608Z,22.60
2017-08-21T16:44:45.284Z,22.60
2017-08-21T16:47:13.328Z,22.50
2017-08-21T16:49:40.987Z,22.50
2017-08-21T16:52:08.661Z,22.70
2017-08-21T16:54:38.023Z,22.70
2017-08-21T16:57:05.767Z,22.60
2017-08-21T16:59:34.440Z,22.70
2017-08-21T17:02:02.499Z,22.90
2017-08-21T17:04:30.331Z,23.00
2017-08-21T17:06:58.132Z,23.00
2017-08-21T17:09:26.347Z,22.70
2017-08-21T17:11:53.992Z,22.70
2017-08-21T17:14:21.674Z,22.70
2017-08-21T17:16:49.941Z,22.70
2017-08-21T17:19:17.605Z,22.70
2017-08-21T17:21:45.285Z,22.60
2017-08-21T17:24:13.997Z,22.60
2017-08-21T17:26:41.721Z,22.50
2017-08-21T17:29:09.385Z,22.40
2017-08-21T17:31:37.411Z,22.40
2017-08-21T17:34:05.349Z,22.30
2017-08-21T17:36:33.009Z,22.20
2017-08-21T17:39:01.107Z,22.10
2017-08-21T17:41:28.762Z,22.00
2017-08-21T17:43:56.408Z,22.00
2017-08-21T17:46:25.257Z,21.90
2017-08-21T17:48:53.285Z,21.80
2017-08-21T17:51:21.228Z,21.80
2017-08-21T17:53:50.116Z,21.70
2017-08-21T17:56:17.879Z,21.70
2017-08-21T18:08:30.627Z,21.60
2017-08-21T18:10:58.311Z,20.30
2017-08-21T18:13:25.975Z,20.40
2017-08-21T18:15:54.873Z,20.50
2017-08-21T18:18:23.216Z,20.70
2017-08-21T18:20:50.882Z,20.70
2017-08-21T18:23:18.580Z,20.80
2017-08-21T18:25:46.241Z,20.80
2017-08-21T18:28:13.946Z,20.70
2017-08-21T18:30:42.883Z,20.50
2017-08-21T18:33:10.997Z,20.40
2017-08-21T18:35:38.754Z,20.30
2017-08-21T18:38:06.866Z,20.30
2017-08-21T18:40:35.857Z,20.20
2017-08-21T18:43:03.585Z,20.10
2017-08-21T18:45:31.743Z,20.00
2017-08-21T18:47:59.698Z,19.90
2017-08-21T18:50:27.436Z,19.80
2017-08-21T18:52:55.097Z,19.80
2017-08-21T18:55:23.425Z,19.70
2017-08-21T18:57:51.144Z,19.70
2017-08-21T19:00:18.837Z,19.60
2017-08-21T19:02:46.519Z,19.50
2017-08-21T19:05:14.168Z,19.50
2017-08-21T19:07:42.072Z,19.40
2017-08-21T19:10:09.839Z,19.40
2017-08-21T19:12:37.564Z,19.30
2017-08-21T19:15:05.226Z,19.20
2017-08-21T19:17:32.888Z,19.20
2017-08-21T19:20:00.947Z,19.20
2017-08-21T19:22:30.017Z,19.20
2017-08-21T19:24:57.762Z,19.20
2017-08-21T19:27:25.455Z,19.20
2017-08-21T19:29:53.129Z,19.10
2017-08-21T19:32:20.804Z,19.00
2017-08-21T19:34:48.916Z,19.00
2017-08-21T19:37:16.616Z,19.00
2017-08-21T19:39:44.339Z,19.00
2017-08-21T19:42:19.782Z,19.00
2017-08-21T19:44:48.019Z,18.90
2017-08-21T19:47:15.697Z,18.80
2017-08-21T19:49:43.413Z,18.70
2017-08-21T19:52:11.143Z,18.60
2017-08-21T19:54:38.815Z,18.50
2017-08-21T19:57:06.838Z,18.50
2017-08-21T19:59:34.489Z,18.40
2017-08-21T20:02:02.422Z,18.40
2017-08-21T20:04:30.124Z,18.30
2017-08-21T20:06:57.830Z,18.40
2017-08-21T20:09:25.600Z,18.40
2017-08-21T20:11:53.868Z,18.30
2017-08-21T20:14:21.926Z,18.30
2017-08-21T20:16:50.082Z,18.30
2017-08-21T20:19:17.786Z,18.20
2017-08-21T20:21:45.556Z,18.20
2017-08-21T20:24:13.313Z,18.10
2017-08-21T20:26:41.105Z,18.00
2017-08-21T20:29:08.860Z,17.90
2017-08-21T20:31:36.562Z,17.90
2017-08-21T20:34:04.231Z,17.90
2017-08-21T20:36:32.281Z,17.90
2017-08-21T20:39:00.093Z,17.90
2017-08-21T20:41:28.026Z,17.90
2017-08-21T20:43:56.129Z,17.80
2017-08-21T20:46:23.845Z,17.80
2017-08-21T20:48:51.971Z,17.80
2017-08-21T20:51:19.653Z,17.70
2017-08-21T20:53:47.339Z,17.70
2017-08-21T20:56:15.455Z,17.60
2017-08-21T20:58:43.103Z,17.60
2017-08-21T21:01:10.765Z,17.60
2017-08-21T21:03:38.816Z,17.60
2017-08-21T21:06:06.533Z,17.60
2017-08-21T21:08:36.240Z,17.60
2017-08-21T21:11:04.369Z,17.50
2017-08-21T21:13:32.026Z,17.50
2017-08-21T21:15:59.682Z,17.40
2017-08-21T21:18:27.891Z,17.40
2017-08-21T21:20:55.871Z,17.40
2017-08-21T21:23:23.702Z,17.30
2017-08-21T21:25:51.880Z,17.30
2017-08-21T21:28:19.631Z,17.20
2017-08-21T21:30:47.301Z,17.10
2017-08-21T21:33:15.265Z,17.00
2017-08-21T21:35:42.955Z,17.00
2017-08-21T21:38:10.706Z,16.90
2017-08-21T21:40:39.020Z,17.00
2017-08-21T21:43:06.687Z,17.00
2017-08-21T21:45:34.367Z,17.00
2017-08-21T21:48:02.046Z,17.10
2017-08-21T21:50:29.766Z,17.10
2017-08-21T21:52:57.426Z,17.10
2017-08-21T21:55:25.070Z,17.10
2017-08-21T21:57:52.728Z,17.10
2017-08-21T22:00:20.369Z,17.00
2017-08-21T22:02:48.023Z,17.00
2017-08-21T22:05:15.702Z,17.00
2017-08-21T22:07:43.838Z,16.90
2017-08-21T22:10:11.483Z,16.80
2017-08-21T22:12:39.137Z,16.80
2017-08-21T22:15:06.781Z,16.80
2017-08-21T22:17:34.464Z,16.80
2017-08-21T22:20:02.127Z,16.80
2017-08-21T22:22:29.776Z,16.70
2017-08-21T22:24:57.456Z,16.80
2017-08-21T22:27:25.116Z,16.80
2017-08-21T22:29:52.791Z,16.80
